Time;durP1;ratioP1;P1;durP2;ratioP2;P2;SDS_P1;SDS_P2;PMS_P1;PMS_P2;Temp;Humidity;BMP_temperature;BMP_pressure;BME280_temperature;BME280_humidity;BME280_pressure;Samples;Min_cycle;Max_cycle;Signal;HPM_P1;HPM_P2
2022/06/24 00:00:16;;;;;;;43.53;23.92;;;20.90;99.90;;;;;;4950807;28;20039;-70
2022/06/24 00:02:48;;;;;;;32.47;20.90;;;20.70;99.90;;;;;;4957567;28;20047;-70
2022/06/24 00:05:14;;;;;;;40.17;22.48;;;20.60;99.90;;;;;;4953475;28;20308;-70
2022/06/24 00:07:47;;;;;;;40.28;21.75;;;20.50;99.90;;;;;;4958724;28;20049;-70
2022/06/24 00:10:18;;;;;;;46.63;25.10;;;20.50;99.90;;;;;;4956785;28;20485;-70
2022/06/24 00:12:45;;;;;;;43.60;23.73;;;20.50;99.90;;;;;;4966287;28;20046;-69
2022/06/24 00:15:12;;;;;;;36.90;22.02;;;20.50;99.90;;;;;;4981770;28;20081;-71
2022/06/24 00:17:37;;;;;;;37.40;20.35;;;20.50;99.90;;;;;;4955516;28;20057;-71
2022/06/24 00:20:06;;;;;;;40.67;20.80;;;20.50;99.90;;;;;;4943680;28;20043;-72
2022/06/24 00:22:42;;;;;;;35.72;21.83;;;20.40;99.90;;;;;;4945270;28;20413;-71
2022/06/24 00:25:12;;;;;;;38.20;21.75;;;20.40;99.90;;;;;;4944843;28;20559;-72
2022/06/24 00:27:40;;;;;;;35.55;19.17;;;20.30;99.90;;;;;;4961222;28;20047;-71
2022/06/24 00:30:10;;;;;;;35.42;20.30;;;20.20;99.90;;;;;;4963177;28;20453;-70
2022/06/24 00:32:36;;;;;;;37.88;21.33;;;20.20;99.90;;;;;;4952815;28;20038;-72
2022/06/24 00:35:15;;;;;;;40.30;21.27;;;20.10;99.90;;;;;;4958445;28;20043;-71
2022/06/24 00:37:43;;;;;;;41.25;21.65;;;20.10;99.90;;;;;;4961964;28;20038;-71
2022/06/24 00:40:09;;;;;;;40.70;22.35;;;20.00;99.90;;;;;;4957581;28;20506;-71
2022/06/24 00:42:37;;;;;;;38.95;21.80;;;20.00;99.90;;;;;;4949281;28;20129;-71
2022/06/24 00:45:31;;;;;;;41.35;22.58;;;20.00;99.90;;;;;;4972006;28;20043;-72
2022/06/24 00:47:57;;;;;;;37.72;24.17;;;20.00;99.90;;;;;;4963879;28;20042;-71
2022/06/24 00:50:29;;;;;;;50.13;26.58;;;20.00;99.90;;;;;;4954592;28;20070;-72
2022/06/24 00:52:57;;;;;;;56.25;28.75;;;20.00;99.90;;;;;;4961003;28;20053;-70
2022/06/24 00:55:36;;;;;;;48.40;27.35;;;20.10;99.90;;;;;;4962832;28;20181;-70
2022/06/24 00:58:03;;;;;;;53.92;28.90;;;20.20;99.90;;;;;;4959149;28;20034;-71
2022/06/24 01:00:31;;;;;;;51.33;28.90;;;20.10;99.90;;;;;;4944173;28;20065;-71
2022/06/24 01:02:58;;;;;;;48.70;28.98;;;19.90;99.90;;;;;;4958238;28;20047;-73
2022/06/24 01:05:24;;;;;;;46.72;29.55;;;19.60;99.90;;;;;;4955348;28;20058;-72
2022/06/24 01:07:50;;;;;;;51.95;29.23;;;19.40;99.90;;;;;;4958661;28;20142;-72
2022/06/24 01:10:15;;;;;;;53.42;29.95;;;19.40;99.90;;;;;;4959758;28;20038;-70
2022/06/24 01:12:41;;;;;;;54.83;30.65;;;19.30;99.90;;;;;;4961815;28;20043;-71
2022/06/24 01:15:07;;;;;;;51.92;29.95;;;19.40;99.90;;;;;;4959414;28;20034;-73
2022/06/24 01:17:33;;;;;;;62.13;29.92;;;19.50;99.90;;;;;;4957273;28;20038;-71
2022/06/24 01:19:59;;;;;;;49.05;28.88;;;19.50;99.90;;;;;;4958905;28;20035;-71
2022/06/24 01:22:26;;;;;;;54.13;29.35;;;19.50;99.90;;;;;;4959939;28;20579;-71
2022/06/24 01:24:52;;;;;;;58.42;29.95;;;19.50;99.90;;;;;;4962807;28;20056;-71
2022/06/24 01:27:19;;;;;;;57.08;30.15;;;19.50;99.90;;;;;;4960059;28;20046;-72
2022/06/24 01:29:45;;;;;;;50.53;28.27;;;19.50;99.90;;;;;;4960849;28;20071;-71
2022/06/24 01:32:11;;;;;;;49.85;29.20;;;19.60;99.90;;;;;;4960866;28;20031;-72
2022/06/24 01:34:37;;;;;;;49.95;28.92;;;19.60;99.90;;;;;;4961774;28;20041;-72
2022/06/24 01:37:03;;;;;;;56.42;30.10;;;19.50;99.90;;;;;;4960418;28;20037;-72
2022/06/24 01:39:29;;;;;;;52.17;27.50;;;19.50;99.90;;;;;;4957243;28;20042;-71
2022/06/24 01:41:55;;;;;;;47.03;28.52;;;19.40;99.90;;;;;;4960737;28;20473;-72
2022/06/24 01:44:22;;;;;;;45.65;28.40;;;19.40;99.90;;;;;;4958866;28;20042;-71
2022/06/24 01:46:49;;;;;;;47.45;27.75;;;19.30;99.90;;;;;;4957830;28;20038;-71
2022/06/24 01:49:15;;;;;;;57.55;31.30;;;19.10;99.90;;;;;;4954830;28;20494;-71
2022/06/24 01:51:43;;;;;;;52.75;31.02;;;18.90;99.90;;;;;;4967232;28;20061;-71
2022/06/24 01:54:09;;;;;;;56.13;31.38;;;18.70;99.90;;;;;;4973751;28;20425;-71
2022/06/24 01:56:35;;;;;;;54.30;32.47;;;18.50;99.90;;;;;;4952705;28;20045;-69
2022/06/24 01:59:01;;;;;;;54.65;30.55;;;18.50;99.90;;;;;;4942395;28;20043;-71
2022/06/24 02:01:27;;;;;;;60.70;34.75;;;18.50;99.90;;;;;;4952555;28;20047;-70
2022/06/24 02:03:53;;;;;;;63.33;36.72;;;18.50;99.90;;;;;;4952418;28;20520;-71
2022/06/24 02:06:19;;;;;;;55.10;31.63;;;18.50;99.90;;;;;;4960711;28;20100;-71
2022/06/24 02:08:44;;;;;;;61.60;35.13;;;18.40;99.90;;;;;;4957439;28;20129;-71
2022/06/24 02:13:57;;;;;;;59.88;33.65;;;18.60;99.90;;;;;;4960811;28;20078;-71
2022/06/24 02:16:23;;;;;;;53.15;32.67;;;18.60;99.90;;;;;;4963627;28;20038;-71
2022/06/24 02:18:50;;;;;;;57.15;33.33;;;18.70;99.90;;;;;;4962379;28;20571;-71
2022/06/24 02:21:16;;;;;;;59.40;35.28;;;18.70;99.90;;;;;;4951608;28;20078;-72
2022/06/24 02:23:42;;;;;;;60.75;34.70;;;18.60;99.90;;;;;;4960613;28;20440;-71
2022/06/24 02:26:08;;;;;;;60.03;34.42;;;18.60;99.90;;;;;;4945220;28;20096;-72
2022/06/24 02:28:34;;;;;;;52.33;31.85;;;18.60;99.90;;;;;;4959860;28;20486;-71
2022/06/24 02:31:02;;;;;;;54.90;31.98;;;18.70;99.90;;;;;;4960945;28;20051;-71
2022/06/24 02:33:28;;;;;;;52.63;32.17;;;18.70;99.90;;;;;;4964470;28;20047;-71
2022/06/24 02:35:54;;;;;;;48.50;31.42;;;18.70;99.90;;;;;;4963860;28;20041;-71
2022/06/24 02:38:20;;;;;;;58.13;32.67;;;18.80;99.90;;;;;;4961242;28;20093;-70
2022/06/24 02:40:46;;;;;;;54.33;30.98;;;18.80;99.90;;;;;;4961132;28;20034;-71
2022/06/24 02:43:25;;;;;;;51.42;30.80;;;18.90;99.90;;;;;;4957313;28;20573;-70
2022/06/24 02:46:13;;;;;;;55.28;32.55;;;18.90;99.90;;;;;;4954483;28;20043;-69
2022/06/24 02:48:40;;;;;;;60.35;34.53;;;18.90;99.90;;;;;;4962413;28;20062;-69
2022/06/24 02:51:08;;;;;;;58.92;35.78;;;18.80;99.90;;;;;;4961012;28;20133;-70
2022/06/24 02:53:35;;;;;;;58.22;35.45;;;18.70;99.90;;;;;;4960353;28;20454;-70
2022/06/24 02:56:06;;;;;;;60.55;36.60;;;18.70;99.90;;;;;;4962210;28;20501;-69
2022/06/24 02:58:32;;;;;;;66.57;38.70;;;18.60;99.90;;;;;;4960923;28;20531;-68
2022/06/24 03:00:59;;;;;;;60.72;35.80;;;18.70;99.90;;;;;;4960376;28;20031;-69
2022/06/24 03:03:25;;;;;;;64.78;36.38;;;18.70;99.90;;;;;;4943167;28;20433;-70
2022/06/24 03:05:51;;;;;;;62.30;37.70;;;18.70;99.90;;;;;;4985297;28;20102;-69
2022/06/24 03:08:18;;;;;;;65.68;38.90;;;18.70;99.90;;;;;;4962293;28;20081;-69
2022/06/24 03:10:45;;;;;;;84.45;45.75;;;18.70;99.90;;;;;;4959134;28;20043;-66
2022/06/24 03:13:11;;;;;;;96.05;51.00;;;18.70;99.90;;;;;;4953183;28;20073;-69
2022/06/24 03:15:37;;;;;;;94.68;52.97;;;18.70;99.90;;;;;;4955069;28;20066;-67
2022/06/24 03:18:03;;;;;;;100.25;53.47;;;18.70;99.90;;;;;;4946335;28;20074;-69
2022/06/24 03:20:29;;;;;;;100.28;55.13;;;18.80;99.90;;;;;;4945904;28;20042;-66
2022/06/24 03:22:54;;;;;;;121.25;63.08;;;18.90;99.90;;;;;;4960401;28;20037;-70
2022/06/24 03:25:20;;;;;;;127.55;64.78;;;19.00;99.90;;;;;;4962030;28;20038;-70
2022/06/24 03:27:46;;;;;;;121.78;63.67;;;19.10;99.90;;;;;;4961932;28;20046;-66
2022/06/24 03:30:12;;;;;;;115.25;61.13;;;19.30;99.90;;;;;;4961921;28;20129;-70
2022/06/24 03:32:39;;;;;;;110.65;57.72;;;19.40;99.90;;;;;;4959354;28;20040;-68
2022/06/24 03:35:06;;;;;;;113.72;60.38;;;19.40;99.90;;;;;;4951948;28;20045;-71
2022/06/24 03:37:32;;;;;;;112.85;56.72;;;19.40;99.90;;;;;;4981542;28;20039;-69
2022/06/24 03:39:59;;;;;;;106.70;56.67;;;19.60;99.90;;;;;;4984292;28;20074;-70
2022/06/24 03:42:25;;;;;;;97.75;53.65;;;19.70;99.90;;;;;;4959167;28;20044;-69
2022/06/24 03:44:51;;;;;;;92.05;48.85;;;19.80;99.90;;;;;;4953835;28;20125;-67
2022/06/24 03:47:17;;;;;;;80.85;45.50;;;19.80;99.90;;;;;;4954126;28;20070;-71
2022/06/24 03:49:42;;;;;;;69.88;39.75;;;19.80;99.90;;;;;;4953949;28;20477;-75
2022/06/24 03:52:08;;;;;;;55.97;33.72;;;19.90;99.90;;;;;;4945552;28;20026;-71
2022/06/24 03:54:35;;;;;;;46.90;27.33;;;19.90;99.90;;;;;;4959768;28;20042;-72
2022/06/24 03:57:00;;;;;;;37.70;24.23;;;19.90;99.90;;;;;;4953598;28;20097;-72
2022/06/24 03:59:26;;;;;;;30.42;18.00;;;19.80;99.90;;;;;;4961725;28;20042;-72
2022/06/24 04:01:52;;;;;;;31.63;17.83;;;19.80;99.90;;;;;;4959128;28;20050;-71
2022/06/24 04:04:18;;;;;;;31.88;17.00;;;19.80;99.90;;;;;;4961502;28;20058;-71
2022/06/24 04:06:43;;;;;;;32.20;15.35;;;19.70;99.90;;;;;;4960951;28;20035;-71
2022/06/24 04:09:09;;;;;;;30.90;15.48;;;19.60;99.90;;;;;;4955858;28;20062;-69
2022/06/24 04:11:35;;;;;;;25.42;13.98;;;19.60;99.90;;;;;;4957979;28;20097;-71
2022/06/24 04:14:01;;;;;;;24.63;13.23;;;19.50;99.90;;;;;;4942120;28;20069;-67
2022/06/24 04:16:27;;;;;;;22.02;12.95;;;19.50;99.90;;;;;;4955060;28;20035;-70
2022/06/24 04:18:53;;;;;;;25.83;13.40;;;19.40;99.90;;;;;;4940358;28;20034;-72
2022/06/24 04:21:19;;;;;;;23.05;12.77;;;19.40;99.90;;;;;;4953868;28;20671;-73
2022/06/24 04:23:46;;;;;;;19.88;12.10;;;19.30;99.90;;;;;;4959361;28;20034;-69
2022/06/24 04:26:12;;;;;;;19.73;12.07;;;19.20;99.90;;;;;;4959610;28;20054;-72
2022/06/24 04:28:38;;;;;;;19.30;12.32;;;19.30;99.90;;;;;;4960177;28;20034;-69
2022/06/24 04:31:03;;;;;;;23.17;13.55;;;19.30;99.90;;;;;;4958284;28;20113;-74
2022/06/24 04:33:29;;;;;;;21.55;13.40;;;19.30;99.90;;;;;;4955796;28;20030;-68
2022/06/24 04:35:55;;;;;;;23.77;13.80;;;19.20;99.90;;;;;;4950427;28;20067;-72
2022/06/24 04:38:20;;;;;;;24.48;14.55;;;19.30;99.90;;;;;;4960670;28;20038;-68
2022/06/24 04:40:46;;;;;;;24.08;14.60;;;19.50;99.90;;;;;;4952701;28;20441;-72
2022/06/24 04:43:12;;;;;;;22.13;14.50;;;19.40;99.90;;;;;;4943616;28;20133;-74
2022/06/24 04:45:38;;;;;;;24.58;14.82;;;19.50;99.90;;;;;;4943995;28;20509;-71
2022/06/24 04:48:05;;;;;;;29.50;15.77;;;19.50;99.90;;;;;;4956928;28;20058;-72
2022/06/24 04:50:31;;;;;;;25.70;15.60;;;19.60;99.90;;;;;;4980421;28;20047;-73
2022/06/24 04:52:56;;;;;;;28.63;16.42;;;19.60;99.90;;;;;;4961859;28;20034;-73
2022/06/24 04:55:23;;;;;;;28.50;16.42;;;19.50;99.90;;;;;;4941320;28;20046;-71
2022/06/24 04:57:48;;;;;;;29.42;16.40;;;19.40;99.90;;;;;;4961977;28;20053;-74
2022/06/24 05:00:15;;;;;;;32.22;18.27;;;19.50;99.90;;;;;;4960361;28;20481;-73
2022/06/24 05:02:41;;;;;;;28.50;16.75;;;19.50;99.90;;;;;;4962348;28;20042;-71
2022/06/24 05:05:11;;;;;;;29.48;16.98;;;19.50;99.90;;;;;;4944137;28;20050;-72
2022/06/24 05:07:38;;;;;;;31.15;17.98;;;19.50;99.90;;;;;;4956634;28;20050;-71
2022/06/24 05:10:05;;;;;;;33.22;19.58;;;19.60;99.90;;;;;;4944066;28;20038;-71
2022/06/24 05:12:31;;;;;;;29.90;17.80;;;19.50;99.90;;;;;;4954519;28;20047;-72
2022/06/24 05:14:58;;;;;;;27.50;17.15;;;19.50;99.90;;;;;;4962931;28;20027;-70
2022/06/24 05:17:24;;;;;;;33.55;17.55;;;19.60;99.90;;;;;;4985221;28;20038;-69
2022/06/24 05:19:50;;;;;;;27.55;16.98;;;19.60;99.90;;;;;;4978285;28;20042;-72
2022/06/24 05:22:16;;;;;;;29.75;16.52;;;19.60;99.90;;;;;;4959248;28;20050;-71
2022/06/24 05:24:42;;;;;;;25.13;15.32;;;19.60;99.90;;;;;;4941808;28;20046;-70
2022/06/24 05:27:08;;;;;;;25.45;16.17;;;19.60;99.90;;;;;;4963149;28;20386;-70
2022/06/24 05:29:34;;;;;;;25.05;15.63;;;19.50;99.90;;;;;;4963686;28;20077;-70
2022/06/24 05:31:59;;;;;;;28.98;16.33;;;19.60;99.90;;;;;;4962851;28;20371;-70
2022/06/24 05:34:25;;;;;;;25.33;15.27;;;19.50;99.90;;;;;;4960566;28;20099;-70
2022/06/24 05:36:50;;;;;;;24.67;14.93;;;19.60;99.90;;;;;;4944184;28;20042;-70
2022/06/24 05:39:16;;;;;;;23.63;14.38;;;19.60;99.90;;;;;;4956231;28;20505;-69
2022/06/24 05:41:43;;;;;;;20.83;13.95;;;19.50;99.90;;;;;;4956910;28;20082;-68
2022/06/24 05:44:10;;;;;;;21.48;13.82;;;19.60;99.90;;;;;;4957477;28;20053;-70
2022/06/24 05:46:35;;;;;;;21.48;13.77;;;19.50;99.90;;;;;;4955393;28;20051;-67
2022/06/24 05:49:01;;;;;;;26.25;14.73;;;19.60;99.90;;;;;;4957059;28;20486;-71
2022/06/24 05:51:28;;;;;;;24.00;14.18;;;19.50;99.90;;;;;;4971462;28;20038;-71
2022/06/24 05:56:38;;;;;;;22.67;13.52;;;19.70;99.90;;;;;;4955483;28;20050;-70
2022/06/24 05:59:04;;;;;;;22.42;13.40;;;19.70;99.90;;;;;;4957680;28;20038;-71
2022/06/24 06:01:30;;;;;;;23.10;13.07;;;19.80;99.90;;;;;;4956392;28;20051;-69
2022/06/24 06:03:56;;;;;;;21.35;12.02;;;19.70;99.90;;;;;;4957180;28;20053;-68
2022/06/24 06:06:23;;;;;;;17.48;11.50;;;19.80;99.90;;;;;;4960997;28;20046;-69
2022/06/24 06:08:49;;;;;;;19.15;12.35;;;19.90;99.90;;;;;;4955753;28;20035;-72
2022/06/24 06:11:17;;;;;;;19.55;12.55;;;19.80;99.90;;;;;;4932753;28;20046;-72
2022/06/24 06:13:44;;;;;;;18.70;13.40;;;19.80;99.90;;;;;;4944482;28;20035;-68
2022/06/24 06:16:10;;;;;;;21.45;13.50;;;19.80;99.90;;;;;;4952549;28;20553;-71
2022/06/24 06:18:36;;;;;;;19.38;12.68;;;19.70;99.90;;;;;;4952038;28;20043;-72
2022/06/24 06:21:04;;;;;;;20.08;11.88;;;19.60;99.90;;;;;;4949314;28;20039;-73
2022/06/24 06:23:30;;;;;;;21.58;13.10;;;19.80;99.90;;;;;;4957956;28;20042;-71
2022/06/24 06:25:57;;;;;;;19.38;13.10;;;19.70;99.90;;;;;;4957179;28;20189;-73
2022/06/24 06:28:23;;;;;;;18.75;12.77;;;19.70;99.90;;;;;;4954388;28;20045;-74
2022/06/24 06:30:49;;;;;;;18.67;13.05;;;19.80;99.90;;;;;;4956717;28;20536;-75
2022/06/24 06:33:14;;;;;;;18.60;12.57;;;19.70;99.90;;;;;;4956908;28;20551;-75
2022/06/24 06:35:40;;;;;;;21.98;12.63;;;19.60;99.90;;;;;;4953916;28;20042;-75
2022/06/24 06:38:06;;;;;;;15.55;11.30;;;19.60;99.90;;;;;;4974795;28;20470;-73
2022/06/24 06:40:35;;;;;;;21.67;12.77;;;19.70;99.90;;;;;;4952821;28;20046;-73
2022/06/24 06:43:02;;;;;;;19.75;12.77;;;19.60;99.90;;;;;;4956041;28;20066;-72
2022/06/24 06:45:28;;;;;;;21.88;11.82;;;19.70;99.90;;;;;;4956862;28;20477;-74
2022/06/24 06:47:53;;;;;;;16.73;12.43;;;19.60;99.90;;;;;;4957122;28;20061;-72
2022/06/24 06:50:19;;;;;;;20.30;12.57;;;19.70;99.90;;;;;;4957980;28;20043;-74
2022/06/24 06:52:45;;;;;;;18.13;11.35;;;19.70;99.90;;;;;;4958006;28;20041;-74
2022/06/24 06:55:11;;;;;;;18.95;12.15;;;19.70;99.90;;;;;;4961723;28;20442;-74
2022/06/24 06:57:38;;;;;;;20.48;12.30;;;19.70;99.90;;;;;;4955881;28;20039;-72
2022/06/24 07:00:06;;;;;;;20.08;12.77;;;19.70;99.90;;;;;;4959070;28;20493;-73
2022/06/24 07:02:32;;;;;;;16.95;12.07;;;19.70;99.90;;;;;;4961344;28;20048;-73
2022/06/24 07:04:57;;;;;;;19.77;12.57;;;19.70;99.90;;;;;;4956836;28;20397;-72
2022/06/24 07:07:23;;;;;;;17.17;12.00;;;19.70;99.90;;;;;;4959863;28;20069;-72
2022/06/24 07:09:49;;;;;;;20.95;12.23;;;19.80;99.90;;;;;;4957435;28;20041;-72
2022/06/24 07:12:15;;;;;;;17.65;12.40;;;19.70;99.90;;;;;;4956948;28;20046;-73
2022/06/24 07:14:42;;;;;;;15.98;11.75;;;19.70;99.90;;;;;;4953550;28;20034;-72
2022/06/24 07:17:08;;;;;;;19.27;13.10;;;19.70;99.90;;;;;;4957548;28;20207;-72
2022/06/24 07:19:34;;;;;;;19.10;13.25;;;19.80;99.90;;;;;;4960626;28;20134;-72
2022/06/24 07:22:00;;;;;;;18.85;13.55;;;19.70;99.90;;;;;;4959894;28;20484;-71
2022/06/24 07:24:25;;;;;;;19.95;13.80;;;19.70;99.90;;;;;;4958254;28;20046;-70
2022/06/24 07:26:51;;;;;;;22.58;13.80;;;19.70;99.90;;;;;;4952243;28;20054;-69
2022/06/24 07:29:17;;;;;;;23.77;14.80;;;19.70;99.90;;;;;;4947739;28;20069;-68
2022/06/24 07:31:42;;;;;;;23.90;13.70;;;19.70;99.90;;;;;;4960681;28;20414;-69
2022/06/24 07:34:08;;;;;;;21.52;14.73;;;19.70;99.90;;;;;;4955625;28;20050;-68
2022/06/24 07:36:34;;;;;;;23.23;14.52;;;19.70;99.90;;;;;;4956694;28;20031;-69
2022/06/24 07:38:59;;;;;;;24.60;14.63;;;19.70;99.90;;;;;;4943665;28;20548;-69
2022/06/24 07:41:25;;;;;;;21.92;13.75;;;19.60;99.90;;;;;;4955708;28;20493;-69
2022/06/24 07:43:51;;;;;;;20.70;14.20;;;19.70;99.90;;;;;;4956335;28;21847;-69
2022/06/24 07:46:16;;;;;;;22.27;13.68;;;19.60;99.90;;;;;;4956274;28;20038;-69
2022/06/24 07:48:42;;;;;;;18.15;12.65;;;19.70;99.90;;;;;;4959276;28;20049;-68
2022/06/24 07:51:16;;;;;;;20.33;14.40;;;19.70;99.90;;;;;;4962415;28;20047;-69
2022/06/24 07:53:43;;;;;;;21.25;15.05;;;19.80;99.90;;;;;;4960167;28;20045;-68
2022/06/24 07:58:53;;;;;;;23.23;15.48;;;19.80;99.90;;;;;;4955465;28;20097;-68
2022/06/24 08:01:18;;;;;;;25.38;16.25;;;19.90;99.90;;;;;;4948434;28;20137;-68
2022/06/24 08:03:44;;;;;;;24.50;15.07;;;19.80;99.90;;;;;;4952555;28;20062;-68
2022/06/24 08:06:10;;;;;;;23.02;14.98;;;19.80;99.90;;;;;;4952589;28;20042;-68
2022/06/24 08:08:36;;;;;;;20.23;15.00;;;19.90;99.90;;;;;;4957725;28;20042;-68
2022/06/24 08:11:02;;;;;;;22.83;15.20;;;19.90;99.90;;;;;;4953066;28;20614;-69
2022/06/24 08:13:29;;;;;;;25.63;15.75;;;19.90;99.90;;;;;;4954832;28;20041;-68
2022/06/24 08:15:56;;;;;;;24.75;15.65;;;19.90;99.90;;;;;;4956035;28;20045;-70
2022/06/24 08:18:22;;;;;;;24.15;16.27;;;19.80;99.90;;;;;;4949282;28;20046;-70
2022/06/24 08:20:47;;;;;;;22.65;15.77;;;19.70;99.90;;;;;;4951753;28;20054;-70
2022/06/24 08:23:13;;;;;;;24.85;17.15;;;19.70;99.90;;;;;;4952884;28;20046;-68
2022/06/24 08:25:39;;;;;;;29.95;17.75;;;19.60;99.90;;;;;;4956099;28;20125;-71
2022/06/24 08:28:04;;;;;;;29.73;18.75;;;19.60;99.90;;;;;;4955370;28;20065;-75
2022/06/24 08:30:30;;;;;;;25.42;18.27;;;19.50;99.90;;;;;;4959889;28;20363;-72
2022/06/24 08:32:56;;;;;;;27.67;17.85;;;19.30;99.90;;;;;;4958773;28;20050;-74
2022/06/24 08:35:21;;;;;;;28.52;16.77;;;19.30;99.90;;;;;;4952436;28;20053;-74
2022/06/24 08:37:47;;;;;;;26.85;16.33;;;19.20;99.90;;;;;;4959336;28;20043;-72
2022/06/24 08:40:15;;;;;;;32.55;17.33;;;19.00;99.90;;;;;;4949994;28;20429;-75
2022/06/24 08:42:44;;;;;;;28.13;14.13;;;18.90;99.90;;;;;;4937013;28;20120;-76
2022/06/24 08:45:13;;;;;;;33.85;15.48;;;18.80;99.90;;;;;;4961279;28;20035;-69
2022/06/24 08:47:39;;;;;;;32.78;16.00;;;18.70;99.90;;;;;;4951194;28;20039;-68
2022/06/24 08:50:09;;;;;;;32.38;16.65;;;18.50;99.90;;;;;;4954069;28;20474;-73
2022/06/24 08:52:35;;;;;;;32.75;17.42;;;18.50;99.90;;;;;;4984862;28;20047;-76
2022/06/24 08:55:03;;;;;;;53.40;19.77;;;18.30;99.90;;;;;;4953854;28;20078;-76
2022/06/24 08:57:30;;;;;;;31.42;16.33;;;18.20;99.90;;;;;;4978446;28;20043;-72
2022/06/24 08:59:56;;;;;;;39.88;18.05;;;18.30;99.90;;;;;;4954155;28;20177;-78
2022/06/24 09:02:21;;;;;;;15.57;9.10;;;18.10;99.90;;;;;;4952917;28;20129;-74
2022/06/24 09:04:47;;;;;;;14.80;8.27;;;18.10;99.90;;;;;;4955889;28;20053;-78
2022/06/24 09:07:31;;;;;;;15.15;8.88;;;17.70;99.90;;;;;;4948097;28;20060;-75
2022/06/24 09:10:04;;;;;;;14.10;8.73;;;17.70;99.90;;;;;;4958842;28;20074;-75
2022/06/24 09:12:36;;;;;;;19.10;9.35;;;17.40;99.90;;;;;;4954684;28;20469;-80
2022/06/24 09:15:03;;;;;;;20.33;9.77;;;17.40;99.90;;;;;;4958642;28;20041;-75
2022/06/24 09:17:31;;;;;;;18.15;10.40;;;17.40;99.90;;;;;;4957799;28;20039;-80
2022/06/24 09:20:07;;;;;;;18.63;10.88;;;17.30;99.90;;;;;;4939966;28;20045;-81
2022/06/24 09:22:33;;;;;;;21.65;11.00;;;17.40;99.90;;;;;;4969712;28;20057;-81
2022/06/24 09:25:01;;;;;;;27.02;11.20;;;17.30;99.90;;;;;;4954181;28;20034;-79
2022/06/24 09:27:27;;;;;;;26.73;12.00;;;17.30;99.90;;;;;;4953666;28;20058;-82
2022/06/24 09:29:53;;;;;;;21.48;11.20;;;17.30;99.90;;;;;;4938268;28;20506;-79
2022/06/24 09:32:19;;;;;;;20.42;12.07;;;17.50;99.90;;;;;;4954494;28;20047;-79
2022/06/24 09:34:57;;;;;;;24.40;12.85;;;17.50;99.90;;;;;;4952520;28;20097;-73
2022/06/24 09:37:43;;;;;;;20.98;11.65;;;17.40;99.90;;;;;;4957896;28;20512;-76
2022/06/24 09:40:27;;;;;;;26.13;12.98;;;17.60;99.90;;;;;;4981409;28;20123;-75
2022/06/24 09:43:00;;;;;;;24.15;12.98;;;17.50;99.90;;;;;;4958275;28;20068;-74
2022/06/24 09:45:42;;;;;;;21.20;12.93;;;17.80;99.90;;;;;;4957740;28;20053;-74
2022/06/24 09:48:08;;;;;;;;;;;17.80;99.90;;;;;;4970043;28;20050;-73
2022/06/24 09:50:34;;;;;;;23.00;12.23;;;17.80;99.90;;;;;;4956969;28;19941;-73
2022/06/24 09:53:02;;;;;;;21.55;12.48;;;17.70;99.90;;;;;;4951719;28;20385;-72
2022/06/24 09:55:30;;;;;;;22.40;12.85;;;17.70;99.90;;;;;;4953807;28;20042;-72
2022/06/24 09:57:59;;;;;;;21.85;12.60;;;17.80;99.90;;;;;;4956842;28;20114;-72
2022/06/24 10:00:41;;;;;;;21.75;13.02;;;17.80;99.90;;;;;;4949641;28;20070;-71
2022/06/24 10:03:09;;;;;;;20.63;12.37;;;18.00;99.90;;;;;;4979482;28;20118;-73
2022/06/24 10:05:38;;;;;;;20.20;10.80;;;18.10;99.90;;;;;;4952222;28;20388;-71
2022/06/24 10:08:06;;;;;;;15.48;10.18;;;18.20;99.90;;;;;;4950649;28;20039;-73
2022/06/24 10:10:35;;;;;;;16.88;11.07;;;17.90;99.90;;;;;;4949789;28;20400;-71
2022/06/24 10:13:05;;;;;;;14.10;9.60;;;17.90;99.90;;;;;;4951935;28;20340;-71
2022/06/24 10:15:31;;;;;;;15.13;10.00;;;18.20;99.90;;;;;;4934596;28;20038;-73
2022/06/24 10:17:58;;;;;;;16.05;10.30;;;18.00;99.90;;;;;;4953842;28;20097;-73
2022/06/24 10:20:25;;;;;;;18.77;9.02;;;18.30;99.90;;;;;;4953907;28;20078;-71
2022/06/24 10:22:50;;;;;;;15.93;10.85;;;18.10;99.90;;;;;;4949947;28;20039;-71
2022/06/24 10:25:20;;;;;;;19.33;11.57;;;18.30;99.90;;;;;;4953355;28;20039;-71
2022/06/24 10:27:58;;;;;;;22.70;12.85;;;18.10;99.90;;;;;;4966779;28;20073;-68
2022/06/24 10:30:39;;;;;;;25.27;13.77;;;18.20;99.90;;;;;;4957967;28;20131;-69
2022/06/24 10:33:19;;;;;;;26.63;15.10;;;18.30;99.90;;;;;;4966683;28;20098;-68
2022/06/24 10:36:05;;;;;;;28.83;17.02;;;18.30;99.90;;;;;;4960704;28;20125;-68
2022/06/24 10:38:41;;;;;;;22.52;14.98;;;18.50;99.90;;;;;;4960400;28;20549;-68
2022/06/24 10:41:11;;;;;;;26.42;16.55;;;18.50;99.90;;;;;;4944512;28;20046;-65
2022/06/24 10:43:41;;;;;;;24.90;17.08;;;18.70;99.90;;;;;;4959649;28;20050;-69
2022/06/24 10:46:13;;;;;;;27.33;16.98;;;18.70;99.90;;;;;;4959374;28;20055;-69
2022/06/24 10:48:55;;;;;;;23.45;16.75;;;18.90;99.90;;;;;;4958912;28;20130;-69
2022/06/24 10:51:22;;;;;;;27.02;15.98;;;18.80;99.90;;;;;;4957845;28;20105;-68
2022/06/24 10:54:03;;;;;;;24.33;16.45;;;18.70;99.90;;;;;;4956573;28;20061;-69
2022/06/24 10:56:46;;;;;;;22.02;15.90;;;19.00;99.90;;;;;;4954210;28;20035;-69
2022/06/24 10:59:13;;;;;;;28.08;18.50;;;18.80;99.90;;;;;;4966135;28;20068;-70
2022/06/24 11:01:47;;;;;;;26.50;16.65;;;19.20;99.90;;;;;;4951769;28;20493;-69
2022/06/24 11:04:28;;;;;;;25.17;17.50;;;19.30;99.90;;;;;;4958076;28;20041;-69
2022/06/24 11:07:12;;;;;;;27.33;16.87;;;19.40;99.90;;;;;;4956182;28;20038;-70
2022/06/24 11:09:38;;;;;;;22.67;16.95;;;19.40;99.90;;;;;;4941036;28;20311;-71
2022/06/24 11:12:06;;;;;;;20.38;15.77;;;19.20;99.90;;;;;;4942140;28;20390;-70
2022/06/24 11:14:31;;;;;;;26.00;19.02;;;19.30;99.90;;;;;;4940538;28;20097;-68
2022/06/24 11:16:57;;;;;;;31.35;20.63;;;19.30;99.90;;;;;;4957168;28;20426;-73
2022/06/24 11:19:23;;;;;;;29.20;17.98;;;19.30;99.90;;;;;;4957483;28;20126;-68
2022/06/24 11:21:50;;;;;;;24.02;17.90;;;19.30;99.90;;;;;;4942125;28;20546;-71
2022/06/24 11:24:19;;;;;;;28.58;20.63;;;19.20;99.90;;;;;;4954557;28;20475;-75
2022/06/24 11:27:07;;;;;;;30.25;19.65;;;19.30;99.90;;;;;;4955759;28;20050;-77
2022/06/24 11:30:09;;;;;;;34.65;23.33;;;19.40;99.90;;;;;;4952123;28;20046;-70
2022/06/24 11:32:54;;;;;;;36.70;24.30;;;19.70;99.90;;;;;;4915127;29;20071;-72
2022/06/24 11:35:21;;;;;;;36.22;24.75;;;19.80;99.90;;;;;;4935006;28;20072;-72
2022/06/24 11:37:47;;;;;;;34.85;23.80;;;19.90;99.90;;;;;;4956453;28;20054;-76
2022/06/24 11:40:28;;;;;;;32.78;23.05;;;19.80;99.90;;;;;;4955691;28;20367;-74
2022/06/24 11:42:55;;;;;;;35.55;25.55;;;19.80;99.90;;;;;;4983787;28;20082;-69
2022/06/24 11:45:34;;;;;;;40.30;25.35;;;20.00;99.90;;;;;;4982864;28;20046;-71
2022/06/24 11:48:22;;;;;;;36.22;25.25;;;20.10;99.90;;;;;;4954275;28;20046;-69
2022/06/24 11:50:49;;;;;;;42.05;27.77;;;20.20;99.90;;;;;;4961635;28;20370;-69
2022/06/24 11:53:16;;;;;;;41.03;27.70;;;20.30;99.90;;;;;;4960822;28;20117;-70
2022/06/24 11:55:42;;;;;;;45.92;29.38;;;20.50;99.90;;;;;;4964353;28;21526;-70
2022/06/24 11:58:11;;;;;;;38.70;25.92;;;20.50;99.90;;;;;;4955778;28;20122;-71
2022/06/24 12:00:41;;;;;;;35.13;25.02;;;20.80;99.90;;;;;;4943523;28;20041;-73
2022/06/24 12:03:10;;;;;;;37.92;24.30;;;20.80;99.90;;;;;;4956787;28;20702;-73
2022/06/24 12:05:45;;;;;;;36.05;23.42;;;20.80;99.90;;;;;;4956638;28;20054;-70
2022/06/24 12:08:11;;;;;;;34.20;22.05;;;20.80;99.90;;;;;;4962482;28;20039;-72
2022/06/24 12:10:54;;;;;;;36.10;23.65;;;21.00;99.90;;;;;;4953966;28;20077;-69
2022/06/24 12:13:32;;;;;;;36.63;25.13;;;21.00;99.90;;;;;;4980377;28;20394;-69
2022/06/24 12:15:58;;;;;;;34.85;24.08;;;21.00;99.90;;;;;;4952955;28;20176;-74
2022/06/24 12:18:25;;;;;;;30.50;22.30;;;21.10;99.90;;;;;;4941825;28;20046;-74
2022/06/24 12:20:56;;;;;;;28.38;20.95;;;21.10;99.90;;;;;;4962216;28;20065;-72
2022/06/24 12:23:22;;;;;;;37.20;23.48;;;21.20;99.90;;;;;;4960480;28;20090;-74
2022/06/24 12:25:50;;;;;;;35.45;23.38;;;21.30;99.90;;;;;;4960025;28;20031;-71
2022/06/24 12:28:17;;;;;;;35.10;23.73;;;21.40;99.90;;;;;;4982098;28;20082;-74
2022/06/24 12:30:53;;;;;;;37.38;25.50;;;21.50;99.90;;;;;;4960475;28;20154;-71
2022/06/24 12:33:18;;;;;;;41.80;28.90;;;21.60;99.90;;;;;;4989340;28;20397;-69
2022/06/24 12:35:45;;;;;;;43.72;28.63;;;21.70;99.90;;;;;;4953487;28;20047;-69
2022/06/24 12:38:12;;;;;;;39.55;28.25;;;21.70;99.90;;;;;;4956951;28;20116;-70
2022/06/24 12:40:41;;;;;;;46.35;30.15;;;21.70;99.90;;;;;;4944469;28;20501;-71